Terminal Aerodrome Forecast
Issued by NWS Medford, OR

Home | Current Version | Previous Version | Text Only | Print | Product List | Glossary On
Versions: 1 2 3 4 5 6 7 8 9 10 11 12 13 14 15 16 17 18 19 20
000
FTUS46 KMFR 231800 AAA
TAFMFR
TAF AMD
KMFR 231849Z 2319/2418 VRB03KT 4SM -SHRA BR BKN004 BKN040 OVC060
     FM232100 30005KT P6SM -SHRA SCT030 BKN040 OVC080
     FM240000 VRB03KT P6SM VCSH SCT035 BKN050 OVC080
     FM240300 00000KT 6SM -RA BR SCT020 OVC050
     FM241200 00000KT 3SM -RA BR SCT007 BKN020 OVC040=

USA.gov is the U.S. government's official web portal to all federal, state and local government web resources and services.